Time;durP1;ratioP1;P1;durP2;ratioP2;P2;SDS_P1;SDS_P2;PMS_P1;PMS_P2;Temp;Humidity;BMP_temperature;BMP_pressure;BME280_temperature;BME280_humidity;BME280_pressure;Samples;Min_cycle;Max_cycle;Signal;HPM_P1;HPM_P2
2024/01/21 00:01:55;;;;;;;12.57;3.77;;;-10.20;40.00;;;;;;5067827;28;46386;-70
2024/01/21 00:04:21;;;;;;;8.23;4.17;;;-10.20;40.00;;;;;;5073338;28;46524;-70
2024/01/21 00:06:46;;;;;;;7.45;3.90;;;-10.10;39.80;;;;;;5070927;28;46466;-70
2024/01/21 00:09:12;;;;;;;9.87;4.53;;;-10.10;39.60;;;;;;5071535;28;46480;-70
2024/01/21 00:11:38;;;;;;;10.73;4.80;;;-10.00;39.30;;;;;;5067688;28;46481;-70
2024/01/21 00:14:03;;;;;;;16.27;5.83;;;-9.90;39.10;;;;;;5066997;28;46587;-70
2024/01/21 00:16:29;;;;;;;11.07;4.80;;;-9.80;38.80;;;;;;5068877;28;46467;-69
2024/01/21 00:18:54;;;;;;;9.13;4.60;;;-9.90;38.70;;;;;;5072561;28;46376;-70
2024/01/21 00:21:20;;;;;;;12.80;5.50;;;-9.80;38.70;;;;;;5069747;28;45839;-70
2024/01/21 00:23:46;;;;;;;8.70;5.70;;;-9.80;38.80;;;;;;5071172;27;46485;-70
2024/01/21 00:26:12;;;;;;;8.15;4.80;;;-9.80;38.70;;;;;;5070006;27;46344;-68
2024/01/21 00:28:38;;;;;;;7.55;5.05;;;-9.80;38.80;;;;;;5054147;28;47427;-69
2024/01/21 00:31:04;;;;;;;11.63;5.73;;;-9.90;38.70;;;;;;5072559;28;46358;-71
2024/01/21 00:33:29;;;;;;;11.73;6.32;;;-9.80;38.80;;;;;;5076583;28;45812;-71
2024/01/21 00:35:55;;;;;;;9.70;5.13;;;-9.80;38.80;;;;;;5069344;28;46544;-70
2024/01/21 00:38:21;;;;;;;19.10;7.83;;;-9.80;38.80;;;;;;5069725;28;46452;-71
2024/01/21 00:40:46;;;;;;;12.53;6.47;;;-9.80;38.80;;;;;;5073931;27;46439;-71
2024/01/21 00:43:12;;;;;;;18.33;6.47;;;-9.80;38.60;;;;;;5074769;28;46342;-72
2024/01/21 00:45:37;;;;;;;14.87;6.60;;;-9.80;38.70;;;;;;5069856;28;46385;-66
2024/01/21 00:48:03;;;;;;;11.33;6.27;;;-9.80;38.80;;;;;;5074322;28;46470;-70
2024/01/21 00:50:29;;;;;;;9.73;5.75;;;-9.90;38.70;;;;;;5077683;28;46436;-70
2024/01/21 00:52:55;;;;;;;11.83;5.80;;;-9.90;38.70;;;;;;5074599;28;46443;-68
2024/01/21 00:55:20;;;;;;;14.57;5.80;;;-9.90;38.80;;;;;;5071376;27;46550;-71
2024/01/21 00:57:46;;;;;;;13.67;6.93;;;-9.90;38.70;;;;;;5073024;28;47327;-71
2024/01/21 01:00:12;;;;;;;10.30;5.97;;;-9.90;38.70;;;;;;5076332;28;45796;-69
2024/01/21 01:02:37;;;;;;;12.50;5.70;;;-9.90;38.90;;;;;;5071578;28;46713;-69
2024/01/21 01:05:03;;;;;;;14.53;5.70;;;-9.90;38.80;;;;;;5075254;28;46682;-71
2024/01/21 01:07:29;;;;;;;15.33;5.80;;;-9.90;38.90;;;;;;5074940;28;46006;-68
2024/01/21 01:09:55;;;;;;;13.17;5.40;;;-9.90;38.80;;;;;;5072587;28;45754;-68
2024/01/21 01:12:20;;;;;;;13.67;5.97;;;-9.90;38.80;;;;;;5072577;28;46625;-69
2024/01/21 01:14:46;;;;;;;13.53;5.47;;;-9.90;38.70;;;;;;5073940;27;45961;-69
2024/01/21 01:17:12;;;;;;;18.27;7.03;;;-9.90;38.70;;;;;;5075202;28;45931;-70
2024/01/21 01:19:38;;;;;;;14.00;7.07;;;-9.90;38.80;;;;;;5071173;28;46434;-69
2024/01/21 01:22:04;;;;;;;13.40;6.30;;;-9.90;38.70;;;;;;5072991;28;46469;-70
2024/01/21 01:24:29;;;;;;;12.48;5.78;;;-10.00;38.80;;;;;;5073167;28;46592;-70
2024/01/21 01:26:55;;;;;;;13.37;6.50;;;-10.00;38.80;;;;;;5073026;28;46614;-70
2024/01/21 01:29:21;;;;;;;10.13;6.03;;;-10.00;38.70;;;;;;5074079;28;46480;-71
2024/01/21 01:31:46;;;;;;;10.40;6.10;;;-9.90;38.60;;;;;;5072324;28;45875;-70
2024/01/21 01:34:12;;;;;;;14.93;6.23;;;-9.60;38.70;;;;;;5074208;28;46589;-71
2024/01/21 01:36:38;;;;;;;17.77;6.50;;;-9.80;38.40;;;;;;5069966;28;47807;-71
2024/01/21 01:39:04;;;;;;;10.80;5.20;;;-10.00;38.50;;;;;;5070658;28;45960;-68
2024/01/21 01:41:30;;;;;;;10.75;5.47;;;-10.00;38.60;;;;;;5069565;27;46495;-71
2024/01/21 01:43:56;;;;;;;10.73;5.67;;;-10.10;38.80;;;;;;5069098;28;46581;-70
2024/01/21 01:46:22;;;;;;;12.87;5.50;;;-10.20;38.80;;;;;;5074678;28;46494;-70
2024/01/21 01:48:49;;;;;;;10.40;5.30;;;-10.30;38.80;;;;;;5056172;28;46712;-71
2024/01/21 01:51:15;;;;;;;10.40;5.40;;;-10.30;38.90;;;;;;5071278;28;46494;-70
2024/01/21 01:53:41;;;;;;;10.70;5.70;;;-10.50;38.90;;;;;;5075163;28;46490;-71
2024/01/21 01:56:08;;;;;;;10.15;5.20;;;-10.50;39.00;;;;;;5072426;27;47343;-69
2024/01/21 01:58:34;;;;;;;12.98;6.10;;;-10.50;39.10;;;;;;5068588;28;46611;-69
2024/01/21 02:01:01;;;;;;;11.30;5.85;;;-10.80;39.30;;;;;;5071153;28;45829;-71
2024/01/21 02:03:28;;;;;;;13.23;6.70;;;-10.80;39.40;;;;;;5073963;28;46502;-71
2024/01/21 02:05:53;;;;;;;12.32;6.90;;;-10.80;39.50;;;;;;5068918;27;47038;-69
2024/01/21 02:08:19;;;;;;;12.13;6.23;;;-10.80;39.30;;;;;;5070121;28;45815;-71
2024/01/21 02:10:45;;;;;;;12.88;6.80;;;-10.80;39.10;;;;;;5073262;28;46458;-69
2024/01/21 02:13:11;;;;;;;16.90;7.20;;;-10.70;38.90;;;;;;5071448;28;45974;-69
2024/01/21 02:15:37;;;;;;;12.17;6.30;;;-10.70;38.80;;;;;;5070998;28;46434;-71
2024/01/21 02:18:02;;;;;;;13.50;6.20;;;-10.70;38.70;;;;;;5076360;28;46344;-69
2024/01/21 02:20:28;;;;;;;12.73;6.87;;;-10.60;38.70;;;;;;5073857;28;46390;-71
2024/01/21 02:22:59;;;;;;;10.00;6.03;;;-10.60;38.60;;;;;;5077509;27;46413;-69
2024/01/21 02:25:25;;;;;;;16.13;7.40;;;-10.60;38.30;;;;;;5068895;27;47039;-69
2024/01/21 02:27:51;;;;;;;18.93;7.07;;;-10.50;38.30;;;;;;5071262;28;46537;-69
2024/01/21 02:30:16;;;;;;;9.97;6.33;;;-10.50;38.10;;;;;;5076368;28;46350;-70
2024/01/21 02:32:42;;;;;;;11.30;6.77;;;-10.50;38.00;;;;;;5068254;28;46433;-71
2024/01/21 02:35:07;;;;;;;10.07;5.90;;;-10.50;38.20;;;;;;5053422;28;46596;-71
2024/01/21 02:37:33;;;;;;;11.00;5.80;;;-10.60;38.20;;;;;;5056649;28;46717;-71
2024/01/21 02:39:59;;;;;;;12.57;6.57;;;-10.60;38.30;;;;;;5077318;27;46419;-71
2024/01/21 02:42:26;;;;;;;11.70;5.90;;;-10.70;38.40;;;;;;5071879;28;45855;-71
2024/01/21 02:44:52;;;;;;;14.02;7.22;;;-10.70;38.50;;;;;;5071877;28;46530;-71
2024/01/21 02:47:17;;;;;;;14.25;5.97;;;-10.70;38.40;;;;;;5072495;28;46711;-71
2024/01/21 02:49:43;;;;;;;13.00;6.23;;;-10.60;38.40;;;;;;5071581;27;46533;-71
2024/01/21 02:52:09;;;;;;;10.45;5.85;;;-10.60;38.20;;;;;;5074497;28;46455;-68
2024/01/21 02:54:34;;;;;;;12.23;6.03;;;-10.50;38.10;;;;;;5071783;28;46520;-69
2024/01/21 02:57:00;;;;;;;14.97;6.63;;;-10.50;38.20;;;;;;5075355;27;46527;-71
2024/01/21 02:59:25;;;;;;;10.50;5.17;;;-10.50;38.00;;;;;;5068474;28;46435;-70
2024/01/21 03:01:51;;;;;;;8.73;5.70;;;-10.40;37.90;;;;;;5074060;27;46356;-69
2024/01/21 03:04:16;;;;;;;11.63;6.33;;;-10.30;37.90;;;;;;5071571;28;47018;-71
2024/01/21 03:06:43;;;;;;;10.27;5.80;;;-10.30;37.70;;;;;;5070261;28;45843;-70
2024/01/21 03:09:09;;;;;;;12.77;5.78;;;-10.30;37.70;;;;;;5074874;28;46493;-69
2024/01/21 03:11:37;;;;;;;10.87;5.80;;;-10.30;37.70;;;;;;5058611;28;46590;-71
2024/01/21 03:14:02;;;;;;;8.50;4.97;;;-10.30;37.80;;;;;;5071424;28;45931;-73
2024/01/21 03:16:28;;;;;;;11.73;5.60;;;-10.30;38.00;;;;;;5072409;27;45863;-70
2024/01/21 03:18:53;;;;;;;11.40;5.83;;;-10.40;37.90;;;;;;5071993;27;46450;-71
2024/01/21 03:21:19;;;;;;;7.93;4.67;;;-10.50;37.90;;;;;;5068563;28;46628;-69
2024/01/21 03:23:45;;;;;;;10.40;6.00;;;-10.60;38.00;;;;;;5072537;28;46470;-69
2024/01/21 03:26:11;;;;;;;9.10;5.57;;;-10.60;38.30;;;;;;5070502;27;46526;-71
2024/01/21 03:28:36;;;;;;;12.90;5.40;;;-10.60;38.40;;;;;;5074950;28;46309;-71
2024/01/21 03:31:02;;;;;;;9.30;5.80;;;-10.60;38.40;;;;;;5071031;28;46711;-71
2024/01/21 03:33:27;;;;;;;10.73;5.50;;;-10.60;38.30;;;;;;5070710;28;46478;-70
2024/01/21 03:35:53;;;;;;;11.00;4.93;;;-10.50;38.10;;;;;;5073656;28;45868;-71
2024/01/21 03:38:18;;;;;;;8.53;5.30;;;-10.40;37.90;;;;;;5069191;28;45869;-71
2024/01/21 03:40:44;;;;;;;7.37;4.80;;;-10.40;37.70;;;;;;5071611;28;45901;-71
2024/01/21 03:43:10;;;;;;;9.00;5.30;;;-10.30;37.60;;;;;;5071919;28;46946;-69
2024/01/21 03:45:35;;;;;;;9.13;5.60;;;-10.30;37.50;;;;;;5067482;27;46479;-69
2024/01/21 03:48:01;;;;;;;8.90;5.93;;;-10.20;37.40;;;;;;5072835;28;45917;-71
2024/01/21 03:50:26;;;;;;;7.27;4.80;;;-10.10;37.40;;;;;;5078572;28;46569;-69
2024/01/21 03:52:52;;;;;;;9.03;4.87;;;-10.10;37.40;;;;;;5071168;28;46481;-71
2024/01/21 03:55:19;;;;;;;8.83;5.47;;;-10.00;37.30;;;;;;5068908;27;46414;-71
2024/01/21 03:57:45;;;;;;;9.35;5.25;;;-10.00;37.40;;;;;;5070475;28;46414;-67
2024/01/21 04:00:11;;;;;;;8.90;5.03;;;-9.90;37.30;;;;;;5072171;28;46356;-69
2024/01/21 04:02:38;;;;;;;6.03;4.15;;;-9.90;37.30;;;;;;5070832;28;46465;-70
2024/01/21 04:05:05;;;;;;;8.63;4.03;;;-9.90;37.20;;;;;;5074683;28;46379;-71
2024/01/21 04:07:31;;;;;;;8.40;4.50;;;-10.00;37.30;;;;;;5073577;28;46408;-70
2024/01/21 04:09:56;;;;;;;7.68;4.78;;;-10.20;37.50;;;;;;5075344;28;46383;-71
2024/01/21 04:12:22;;;;;;;7.70;4.30;;;-10.30;37.80;;;;;;5074698;28;46401;-71
2024/01/21 04:14:48;;;;;;;7.00;4.37;;;-10.50;38.20;;;;;;5077709;28;46500;-71
2024/01/21 04:17:13;;;;;;;10.43;4.17;;;-10.50;38.50;;;;;;5076753;28;46387;-71
2024/01/21 04:19:39;;;;;;;9.03;4.20;;;-10.60;38.50;;;;;;5072766;28;46481;-70
2024/01/21 04:22:04;;;;;;;8.30;4.67;;;-10.60;38.50;;;;;;5072542;28;47440;-71
2024/01/21 04:24:30;;;;;;;7.87;4.20;;;-10.60;38.50;;;;;;5072894;28;46534;-71
2024/01/21 04:26:56;;;;;;;8.32;4.63;;;-10.50;38.40;;;;;;5074542;28;46424;-71
2024/01/21 04:29:22;;;;;;;10.77;4.47;;;-10.50;38.30;;;;;;5070593;28;46480;-71
2024/01/21 04:31:47;;;;;;;8.93;4.80;;;-10.40;38.10;;;;;;5074537;28;46402;-71
2024/01/21 04:34:13;;;;;;;7.90;4.50;;;-10.40;38.10;;;;;;5075360;28;46402;-71
2024/01/21 04:36:39;;;;;;;9.60;4.23;;;-10.40;38.00;;;;;;5073034;27;46361;-70
2024/01/21 04:39:06;;;;;;;12.47;5.23;;;-10.40;37.80;;;;;;5073765;28;46678;-72
2024/01/21 04:41:32;;;;;;;10.15;5.38;;;-10.30;37.80;;;;;;5072894;28;46874;-69
2024/01/21 04:43:57;;;;;;;8.05;3.80;;;-10.30;37.60;;;;;;5070012;28;46456;-67
2024/01/21 04:46:23;;;;;;;8.07;4.80;;;-10.30;37.60;;;;;;5068282;28;46466;-71
2024/01/21 04:48:48;;;;;;;7.17;4.17;;;-10.30;37.40;;;;;;5073917;28;46553;-71
2024/01/21 04:51:14;;;;;;;10.23;5.00;;;-10.20;37.50;;;;;;5069441;28;46514;-71
2024/01/21 04:53:40;;;;;;;7.20;4.37;;;-10.20;37.40;;;;;;5073495;28;46342;-69
2024/01/21 04:56:06;;;;;;;7.63;4.40;;;-10.20;37.50;;;;;;5075314;28;46376;-68
2024/01/21 04:58:32;;;;;;;11.05;5.25;;;-10.30;37.60;;;;;;5070801;28;46424;-70
2024/01/21 05:00:58;;;;;;;5.25;3.85;;;-10.30;37.70;;;;;;5069893;28;46333;-71
2024/01/21 05:03:24;;;;;;;8.10;4.07;;;-10.30;37.80;;;;;;5076290;28;46302;-70
2024/01/21 05:05:50;;;;;;;8.80;3.90;;;-10.40;37.90;;;;;;5072425;28;46416;-71
2024/01/21 05:08:15;;;;;;;12.20;3.80;;;-10.40;38.00;;;;;;5075352;28;46386;-71
2024/01/21 05:10:41;;;;;;;9.70;3.80;;;-10.40;37.90;;;;;;5073301;28;46497;-71
2024/01/21 05:13:06;;;;;;;8.20;3.93;;;-10.40;37.80;;;;;;5070633;28;46761;-71
2024/01/21 05:15:32;;;;;;;6.30;3.77;;;-10.30;37.80;;;;;;5070955;28;46503;-71
2024/01/21 05:17:58;;;;;;;7.50;4.57;;;-10.30;37.70;;;;;;5052864;27;45971;-70
2024/01/21 05:20:23;;;;;;;5.80;3.87;;;-10.30;37.70;;;;;;5074393;28;46578;-70
2024/01/21 05:22:50;;;;;;;7.20;3.83;;;-10.20;37.50;;;;;;5074221;28;46423;-70
2024/01/21 05:25:17;;;;;;;5.53;3.40;;;-10.20;37.40;;;;;;5071820;28;46440;-70
2024/01/21 05:27:42;;;;;;;9.95;3.60;;;-10.20;37.40;;;;;;5072515;28;46245;-70
2024/01/21 05:30:08;;;;;;;5.77;3.50;;;-10.10;37.30;;;;;;5075363;28;47335;-70
2024/01/21 05:32:34;;;;;;;6.57;3.57;;;-10.10;37.40;;;;;;5073396;28;46391;-70
2024/01/21 05:35:00;;;;;;;7.47;3.35;;;-10.10;37.20;;;;;;5074450;27;46455;-70
2024/01/21 05:37:25;;;;;;;5.00;2.77;;;-10.00;37.30;;;;;;5052320;28;46428;-70
2024/01/21 05:39:51;;;;;;;5.03;3.00;;;-9.90;37.20;;;;;;5072656;28;47944;-70
2024/01/21 05:42:16;;;;;;;5.37;3.80;;;-9.90;37.00;;;;;;5074037;28;47292;-71
2024/01/21 05:44:42;;;;;;;7.87;4.60;;;-9.90;36.90;;;;;;5075013;27;46483;-70
2024/01/21 05:47:08;;;;;;;7.13;3.80;;;-9.90;36.90;;;;;;5074354;27;46471;-71
2024/01/21 05:49:33;;;;;;;6.70;3.53;;;-9.90;37.00;;;;;;5075144;28;46403;-70
2024/01/21 05:51:59;;;;;;;5.70;2.93;;;-9.90;38.20;;;;;;5073436;28;46477;-71
2024/01/21 05:54:25;;;;;;;5.90;2.97;;;-9.90;37.00;;;;;;5072370;28;46490;-70
2024/01/21 05:56:51;;;;;;;3.80;2.65;;;-10.00;37.00;;;;;;5069244;27;45969;-69
2024/01/21 05:59:17;;;;;;;3.23;2.10;;;-10.10;37.10;;;;;;5070476;28;46526;-70
2024/01/21 06:01:44;;;;;;;4.85;2.67;;;-10.10;37.10;;;;;;5070768;28;46681;-71
2024/01/21 06:04:10;;;;;;;3.47;2.00;;;-10.10;37.20;;;;;;5075270;28;46358;-71
2024/01/21 06:06:35;;;;;;;3.60;1.90;;;-10.00;37.00;;;;;;5067740;28;46574;-68
2024/01/21 06:09:01;;;;;;;3.03;2.50;;;-9.80;36.90;;;;;;5070942;28;45920;-70
2024/01/21 06:11:28;;;;;;;4.20;2.10;;;-9.50;36.40;;;;;;5075978;28;46499;-70
2024/01/21 06:13:54;;;;;;;2.78;2.15;;;-9.30;36.10;;;;;;5076231;28;46435;-70
2024/01/21 06:16:20;;;;;;;3.63;2.57;;;-9.20;36.20;;;;;;5074047;27;46572;-70
2024/01/21 06:18:45;;;;;;;7.70;2.50;;;-9.10;36.20;;;;;;5073070;28;46606;-71
2024/01/21 06:21:11;;;;;;;6.23;2.60;;;-9.00;36.30;;;;;;5071287;28;45804;-70
2024/01/21 06:23:36;;;;;;;2.93;2.20;;;-8.90;36.40;;;;;;5073570;28;46448;-71
2024/01/21 06:26:02;;;;;;;5.40;2.33;;;-8.80;36.50;;;;;;5072496;27;46456;-70
2024/01/21 06:28:28;;;;;;;4.83;2.80;;;-8.80;36.50;;;;;;5072080;27;46963;-71
2024/01/21 06:30:54;;;;;;;3.17;2.40;;;-8.90;36.40;;;;;;5072545;28;46407;-70
2024/01/21 06:33:20;;;;;;;3.83;2.47;;;-9.00;36.30;;;;;;5077597;28;46380;-71
2024/01/21 06:35:45;;;;;;;4.37;2.23;;;-9.10;36.40;;;;;;5069185;28;46433;-69
2024/01/21 06:38:11;;;;;;;5.37;2.83;;;-9.00;36.90;;;;;;5060780;28;48157;-66
2024/01/21 06:40:37;;;;;;;3.10;2.25;;;-9.00;36.90;;;;;;5065114;28;46358;-68
2024/01/21 06:43:02;;;;;;;4.20;2.47;;;-9.10;37.10;;;;;;5072685;28;46531;-70
2024/01/21 06:45:28;;;;;;;4.60;2.50;;;-9.10;37.20;;;;;;5076458;28;45982;-69
2024/01/21 06:47:54;;;;;;;2.80;2.10;;;-9.10;37.20;;;;;;5072422;28;46462;-67
2024/01/21 06:50:21;;;;;;;2.93;2.30;;;-9.00;36.80;;;;;;5075352;28;46420;-69
2024/01/21 06:52:46;;;;;;;4.15;2.60;;;-8.90;36.40;;;;;;5071711;28;46453;-69
2024/01/21 06:55:12;;;;;;;2.57;2.27;;;-8.80;36.50;;;;;;5067118;28;46331;-69
2024/01/21 06:57:39;;;;;;;3.13;2.38;;;-8.70;36.60;;;;;;5071339;27;46724;-67
2024/01/21 07:00:06;;;;;;;2.83;2.10;;;-8.60;36.60;;;;;;5069240;28;46422;-68
2024/01/21 07:02:32;;;;;;;3.15;2.25;;;-8.50;36.30;;;;;;5069484;28;46432;-67
2024/01/21 07:04:57;;;;;;;3.03;2.10;;;-8.50;36.00;;;;;;5072539;28;45979;-69
2024/01/21 07:07:23;;;;;;;3.67;2.30;;;-8.40;35.90;;;;;;5072972;28;47280;-67
2024/01/21 07:09:49;;;;;;;3.73;2.47;;;-8.40;36.10;;;;;;5072057;27;46191;-67
2024/01/21 07:12:15;;;;;;;4.90;3.10;;;-8.30;35.90;;;;;;5075547;27;46431;-67
2024/01/21 07:14:41;;;;;;;4.63;2.80;;;-8.30;35.70;;;;;;5068769;28;46482;-67
2024/01/21 07:17:06;;;;;;;3.90;2.80;;;-8.20;35.70;;;;;;5071398;28;46416;-69
2024/01/21 07:19:32;;;;;;;4.73;3.30;;;-8.20;35.70;;;;;;5072102;28;45802;-69
2024/01/21 07:21:58;;;;;;;3.93;2.63;;;-8.30;36.10;;;;;;5077546;28;46368;-68
2024/01/21 07:24:24;;;;;;;6.23;3.30;;;-8.40;36.40;;;;;;5069118;28;46275;-69
2024/01/21 07:26:49;;;;;;;3.90;2.30;;;-8.30;36.10;;;;;;5050438;28;46418;-67
2024/01/21 07:29:15;;;;;;;6.60;2.33;;;-8.30;35.90;;;;;;5070597;28;46306;-68
2024/01/21 07:31:41;;;;;;;2.30;2.10;;;-8.30;36.00;;;;;;5069133;28;46640;-67
2024/01/21 07:34:10;;;;;;;4.75;2.65;;;-8.30;35.90;;;;;;5048242;28;46526;-67
2024/01/21 07:36:38;;;;;;;4.03;2.50;;;-8.20;35.80;;;;;;5075167;27;46207;-69
2024/01/21 07:39:07;;;;;;;3.00;2.35;;;-8.20;35.70;;;;;;5072127;28;46956;-68
2024/01/21 07:41:32;;;;;;;6.60;2.70;;;-8.30;35.70;;;;;;5074377;28;46422;-69
2024/01/21 07:43:59;;;;;;;2.73;2.30;;;-8.30;35.90;;;;;;5077962;28;45872;-69
2024/01/21 07:46:24;;;;;;;4.30;2.10;;;-8.30;35.80;;;;;;5068716;28;48222;-68
2024/01/21 07:48:50;;;;;;;3.13;2.17;;;-8.20;35.90;;;;;;5078337;27;45944;-69
2024/01/21 07:51:19;;;;;;;4.30;2.90;;;-8.20;36.00;;;;;;5071336;27;46480;-69
2024/01/21 07:53:45;;;;;;;3.63;2.10;;;-8.10;35.80;;;;;;5070908;28;46294;-73
2024/01/21 07:56:12;;;;;;;6.20;2.90;;;-8.00;35.70;;;;;;5067678;28;46920;-71
2024/01/21 07:58:38;;;;;;;8.38;2.97;;;-8.00;35.60;;;;;;5069222;27;46489;-72
2024/01/21 08:01:09;;;;;;;6.10;3.27;;;-7.90;35.60;;;;;;5066292;28;46467;-72
2024/01/21 08:03:35;;;;;;;5.30;3.67;;;-7.70;35.60;;;;;;5070201;28;46475;-74
2024/01/21 08:06:01;;;;;;;7.50;3.70;;;-7.60;35.20;;;;;;5069820;28;48333;-73
2024/01/21 08:08:26;;;;;;;5.67;3.80;;;-7.40;35.10;;;;;;5068131;28;46431;-73
2024/01/21 08:10:52;;;;;;;6.20;3.83;;;-7.30;34.80;;;;;;5069888;28;46532;-73
2024/01/21 08:13:17;;;;;;;12.47;5.27;;;-7.10;34.50;;;;;;5073989;28;46492;-73
2024/01/21 08:15:43;;;;;;;12.77;5.03;;;-6.90;34.20;;;;;;5054526;28;48181;-68
2024/01/21 08:18:08;;;;;;;8.43;4.53;;;-6.70;35.10;;;;;;5074648;28;46380;-68
2024/01/21 08:20:34;;;;;;;9.13;4.83;;;-6.60;33.70;;;;;;5078444;27;45887;-67
2024/01/21 08:23:01;;;;;;;5.90;4.70;;;-6.40;33.30;;;;;;5076582;27;46500;-70
2024/01/21 08:25:27;;;;;;;7.25;4.15;;;-6.20;33.20;;;;;;5071989;27;46530;-72
2024/01/21 08:27:53;;;;;;;10.83;3.50;;;-5.90;33.10;;;;;;5059405;27;46400;-71
2024/01/21 08:30:19;;;;;;;9.20;5.17;;;-5.90;32.60;;;;;;5070060;28;46382;-71
2024/01/21 08:32:45;;;;;;;10.93;4.55;;;-5.80;32.60;;;;;;5074478;28;46718;-72
2024/01/21 08:35:10;;;;;;;9.07;5.23;;;-5.60;32.60;;;;;;5054302;28;46975;-72
2024/01/21 08:37:36;;;;;;;12.17;6.27;;;-5.40;32.60;;;;;;5068900;28;45892;-71
2024/01/21 08:40:04;;;;;;;17.42;7.82;;;-5.20;32.60;;;;;;5069581;28;46444;-71
2024/01/21 08:42:29;;;;;;;12.27;5.90;;;-5.00;32.30;;;;;;5071335;28;46445;-71
2024/01/21 08:44:55;;;;;;;10.00;5.60;;;-4.70;32.20;;;;;;5070697;28;47174;-71
2024/01/21 08:47:21;;;;;;;12.23;6.07;;;-4.50;32.10;;;;;;5070379;28;46474;-71
2024/01/21 08:49:47;;;;;;;9.63;5.20;;;-4.30;31.70;;;;;;5068155;28;46415;-71
2024/01/21 08:52:12;;;;;;;6.67;4.33;;;-4.10;31.60;;;;;;5074656;27;46332;-73
2024/01/21 08:54:38;;;;;;;8.40;5.10;;;-3.90;31.50;;;;;;5075840;28;46476;-71
2024/01/21 08:57:04;;;;;;;6.45;4.25;;;-3.70;31.30;;;;;;5083145;27;46366;-71
2024/01/21 08:59:30;;;;;;;7.50;4.30;;;-3.50;31.30;;;;;;5084038;28;46378;-73
2024/01/21 09:01:56;;;;;;;6.35;3.78;;;-3.30;31.50;;;;;;5077544;28;46376;-73
2024/01/21 09:04:21;;;;;;;5.93;3.60;;;-3.20;31.60;;;;;;5075118;28;46318;-71
2024/01/21 09:06:47;;;;;;;6.47;2.93;;;-3.00;31.70;;;;;;5078668;27;45914;-72
2024/01/21 09:09:13;;;;;;;3.80;2.60;;;-2.80;32.00;;;;;;5075688;27;45922;-72
2024/01/21 09:11:39;;;;;;;4.97;2.37;;;-2.70;32.10;;;;;;5059328;28;46457;-71
2024/01/21 09:14:06;;;;;;;3.65;2.42;;;-2.50;32.20;;;;;;5087965;27;47986;-71
2024/01/21 09:16:32;;;;;;;3.95;2.40;;;-2.40;32.40;;;;;;5083615;27;46088;-73
2024/01/21 09:18:58;;;;;;;4.35;2.25;;;-2.30;32.40;;;;;;5069096;27;46293;-73
2024/01/21 09:21:24;;;;;;;6.30;2.40;;;-2.10;32.30;;;;;;5083470;27;46427;-73
2024/01/21 09:23:51;;;;;;;7.50;3.37;;;-2.00;32.50;;;;;;5083922;27;46390;-73
2024/01/21 09:26:17;;;;;;;6.82;3.58;;;-1.90;32.50;;;;;;5093247;27;46703;-73
2024/01/21 09:28:43;;;;;;;5.77;3.73;;;-1.80;32.70;;;;;;5080102;28;46462;-73
2024/01/21 09:31:09;;;;;;;5.07;3.40;;;-1.70;32.50;;;;;;5078365;28;45908;-72
2024/01/21 09:33:35;;;;;;;4.73;3.30;;;-1.60;32.30;;;;;;5073788;28;47391;-74
2024/01/21 09:36:01;;;;;;;6.10;3.55;;;-1.50;32.60;;;;;;5068347;27;46679;-71
2024/01/21 09:38:28;;;;;;;6.50;3.70;;;-1.30;32.30;;;;;;5071790;28;46470;-70
2024/01/21 09:41:07;;;;;;;6.60;3.85;;;-1.10;32.20;;;;;;5069378;22;45816;-69
2024/01/21 09:43:35;;;;;;;4.93;3.22;;;-0.90;32.00;;;;;;5049788;28;46355;-70
2024/01/21 09:46:02;;;;;;;5.70;2.97;;;-0.70;31.60;;;;;;5045222;28;46897;-69
2024/01/21 09:48:28;;;;;;;5.43;3.10;;;-0.70;31.40;;;;;;5048026;28;46389;-69
2024/01/21 09:50:55;;;;;;;6.38;3.13;;;-0.60;31.60;;;;;;5045434;28;46515;-70
2024/01/21 09:53:21;;;;;;;5.13;2.70;;;-0.50;31.40;;;;;;5030043;28;48124;-69
2024/01/21 09:55:54;;;;;;;8.75;3.70;;;-0.40;31.50;;;;;;5039127;28;46412;-69
2024/01/21 09:58:22;;;;;;;9.20;4.57;;;-0.20;31.60;;;;;;5042937;28;46504;-69
2024/01/21 10:00:48;;;;;;;6.13;3.55;;;0.10;30.90;;;;;;5046911;28;46385;-70
2024/01/21 10:03:14;;;;;;;5.43;3.60;;;0.30;31.10;;;;;;5042023;28;46424;-70
2024/01/21 10:05:40;;;;;;;8.57;3.40;;;0.30;31.10;;;;;;5025107;28;46382;-70
2024/01/21 10:08:06;;;;;;;4.90;3.23;;;0.50;30.70;;;;;;5045584;28;46388;-70
2024/01/21 10:10:31;;;;;;;6.53;3.30;;;0.60;30.30;;;;;;5031411;28;46333;-71
2024/01/21 10:12:57;;;;;;;13.70;3.33;;;0.60;30.60;;;;;;5027790;28;46419;-71
2024/01/21 10:15:22;;;;;;;5.53;3.53;;;0.70;30.60;;;;;;5021476;28;46394;-71
2024/01/21 10:17:51;;;;;;;5.50;2.97;;;0.90;30.20;;;;;;5052810;28;46433;-71
2024/01/21 10:20:18;;;;;;;5.63;3.30;;;1.20;30.00;;;;;;5033147;28;46592;-71
2024/01/21 10:22:44;;;;;;;5.47;3.40;;;1.60;29.50;;;;;;5041199;28;46508;-71
2024/01/21 10:25:13;;;;;;;3.77;2.60;;;1.70;28.90;;;;;;5042758;28;46444;-71
2024/01/21 10:27:40;;;;;;;9.90;3.50;;;1.80;28.50;;;;;;5036150;28;46516;-71
2024/01/21 10:30:08;;;;;;;8.65;4.03;;;1.90;28.10;;;;;;5025008;28;46573;-72
2024/01/21 10:32:34;;;;;;;9.73;3.65;;;1.80;28.30;;;;;;5048305;28;47433;-71
2024/01/21 10:35:00;;;;;;;6.20;3.70;;;1.70;28.90;;;;;;5036722;28;46390;-70
2024/01/21 10:37:28;;;;;;;7.93;2.97;;;1.90;29.10;;;;;;5028682;28;46396;-70
2024/01/21 10:39:55;;;;;;;4.35;2.70;;;2.10;28.70;;;;;;5025501;28;46543;-70
2024/01/21 10:42:20;;;;;;;15.50;2.85;;;2.40;28.40;;;;;;5030942;28;46253;-71
2024/01/21 10:44:46;;;;;;;3.60;2.00;;;2.70;28.00;;;;;;5030608;28;46643;-71
2024/01/21 10:47:14;;;;;;;4.47;2.47;;;2.80;27.70;;;;;;5032012;28;46378;-70
2024/01/21 10:49:40;;;;;;;4.40;2.67;;;3.00;27.70;;;;;;5028975;28;46330;-70
2024/01/21 10:52:09;;;;;;;3.53;2.38;;;3.30;27.20;;;;;;5033855;28;46781;-72
2024/01/21 10:54:37;;;;;;;5.28;4.10;;;3.70;26.50;;;;;;5043188;28;46381;-71
2024/01/21 10:57:03;;;;;;;5.05;2.42;;;4.00;26.00;;;;;;5038414;28;46640;-72
2024/01/21 10:59:31;;;;;;;5.05;2.88;;;4.20;25.60;;;;;;5046001;28;46583;-69
2024/01/21 11:01:57;;;;;;;4.28;2.53;;;4.30;25.50;;;;;;5033742;28;47421;-71
2024/01/21 11:04:23;;;;;;;7.47;3.15;;;4.30;25.70;;;;;;5037204;28;46693;-71
2024/01/21 11:06:50;;;;;;;4.17;2.80;;;4.40;25.70;;;;;;5046106;28;45746;-71
2024/01/21 11:09:16;;;;;;;3.93;2.57;;;4.50;25.50;;;;;;5047854;28;46623;-70
2024/01/21 11:11:50;;;;;;;4.00;2.53;;;4.70;25.30;;;;;;5052331;28;46376;-70
2024/01/21 11:14:30;;;;;;;4.07;2.67;;;4.80;25.00;;;;;;5021875;28;46408;-70
2024/01/21 11:16:59;;;;;;;3.42;2.42;;;4.90;25.60;;;;;;5023442;28;46583;-70
2024/01/21 11:19:25;;;;;;;3.53;2.33;;;4.90;24.90;;;;;;5024299;28;46307;-70
2024/01/21 11:21:55;;;;;;;3.20;1.83;;;5.10;24.90;;;;;;5037949;28;46211;-70
2024/01/21 11:24:29;;;;;;;3.08;1.80;;;5.10;24.50;;;;;;5041435;28;46562;-69
2024/01/21 11:26:56;;;;;;;9.00;2.00;;;5.30;24.30;;;;;;5033895;28;45812;-71
2024/01/21 11:29:32;;;;;;;6.07;2.17;;;5.40;23.80;;;;;;5035679;28;46453;-71
2024/01/21 11:32:03;;;;;;;3.60;2.00;;;5.50;23.90;;;;;;5040979;28;46368;-71
2024/01/21 11:34:36;;;;;;;6.30;2.10;;;5.60;23.90;;;;;;5040199;28;46416;-71
2024/01/21 11:37:03;;;;;;;3.50;1.90;;;5.60;23.90;;;;;;5040498;28;46445;-71
2024/01/21 11:39:29;;;;;;;3.70;1.60;;;5.80;24.10;;;;;;5038559;28;45881;-71
2024/01/21 11:41:55;;;;;;;4.10;2.33;;;5.80;23.80;;;;;;5035577;28;46490;-71
2024/01/21 11:44:27;;;;;;;36.77;18.60;;;5.90;23.80;;;;;;5038384;28;46511;-71
2024/01/21 11:46:54;;;;;;;11.30;7.47;;;5.90;23.20;;;;;;5041615;28;46078;-72
2024/01/21 11:49:20;;;;;;;6.07;3.30;;;5.80;23.20;;;;;;5041965;28;46404;-72
2024/01/21 11:51:46;;;;;;;4.37;2.27;;;5.60;23.90;;;;;;5041953;28;46141;-70
2024/01/21 11:54:12;;;;;;;4.37;1.97;;;5.50;23.90;;;;;;5044397;28;46408;-72
2024/01/21 11:56:42;;;;;;;4.20;1.90;;;5.50;23.90;;;;;;5046900;28;46505;-71
2024/01/21 11:59:11;;;;;;;3.40;2.13;;;5.40;23.90;;;;;;5045651;28;46256;-70
2024/01/21 12:01:38;;;;;;;3.47;2.03;;;5.30;23.80;;;;;;5045629;28;46927;-71
2024/01/21 12:04:05;;;;;;;2.70;1.60;;;5.20;23.70;;;;;;5045219;28;46432;-71
2024/01/21 12:06:38;;;;;;;3.37;2.10;;;5.10;23.70;;;;;;5050223;28;45871;-72
2024/01/21 12:09:05;;;;;;;3.63;1.90;;;5.10;23.60;;;;;;5045292;28;46614;-72
2024/01/21 12:11:41;;;;;;;2.47;1.50;;;5.20;23.70;;;;;;5042723;28;47735;-72
2024/01/21 12:14:09;;;;;;;2.17;1.25;;;5.30;23.70;;;;;;5041940;28;46345;-72
2024/01/21 12:16:35;;;;;;;2.70;1.53;;;5.30;23.70;;;;;;5046157;28;46381;-72
2024/01/21 12:19:02;;;;;;;2.30;1.60;;;5.30;23.70;;;;;;5045712;28;46745;-71
2024/01/21 12:21:29;;;;;;;3.77;1.60;;;5.20;23.70;;;;;;5029217;28;47098;-71
2024/01/21 12:23:57;;;;;;;2.20;1.50;;;5.20;23.70;;;;;;5042747;28;46333;-72
2024/01/21 12:26:24;;;;;;;2.13;1.20;;;5.00;23.60;;;;;;5049905;28;46416;-71
2024/01/21 12:28:55;;;;;;;3.37;1.50;;;4.60;24.20;;;;;;5050818;28;46361;-71
2024/01/21 12:31:24;;;;;;;5.73;2.20;;;4.30;23.10;;;;;;5049836;28;48050;-71
2024/01/21 12:33:50;;;;;;;6.57;2.53;;;4.00;23.30;;;;;;5045390;28;46408;-71
2024/01/21 12:36:16;;;;;;;3.60;1.83;;;3.90;23.70;;;;;;5049307;28;46440;-71
2024/01/21 12:38:42;;;;;;;5.40;2.00;;;4.00;22.90;;;;;;5047526;28;46609;-71